Date,TemperatureHighF,TemperatureAvgF,TemperatureLowF,DewpointHighF,DewpointAvgF,DewpointLowF,HumidityHigh,HumidityAvg,HumidityLow,PressureMaxIn,PressureMinIn,WindSpeedMaxMPH,WindSpeedAvgMPH,GustSpeedMaxMPH,PrecipitationSumIn
2013-1-1,72.0,53.6,40.5,30.9,16.7,3.6,37,24,16,17.72,17.72,12,1,12,0.00
2013-1-2,74.5,50.7,39.2,24.4,10.4,2.6,21,19,16,17.72,17.72,10,2,10,0.00
2013-1-3,69.6,52.5,39.4,22.9,11.4,2.7,21,19,17,17.72,17.72,13,2,13,0.00
2013-1-4,75.7,48.7,32.7,25.7,8.9,-1.0,23,20,15,17.72,17.72,8,1,8,0.00
2013-1-5,71.1,49.0,36.3,24.1,9.7,1.0,25,20,17,17.72,17.72,8,1,8,0.00
2013-1-6,67.6,57.1,44.1,51.8,21.9,9.3,62,26,19,17.72,17.72,12,1,12,0.04
2013-1-7,69.8,57.7,47.1,58.9,18.3,8.5,73,22,17,17.72,17.72,19,4,20,0.00
2013-1-8,61.2,55.3,52.9,21.4,16.9,13.5,25,22,19,17.72,17.72,5,0,5,0.00
2013-1-9,72.7,60.9,52.5,35.5,20.5,13.7,35,21,16,17.72,17.72,8,1,8,0.00
2013-1-10,67.6,56.9,43.0,41.2,22.1,4.7,38,26,18,17.72,17.72,17,3,17,0.00
2013-1-11,69.3,45.3,36.0,22.6,8.6,1.0,29,22,17,17.72,17.72,10,2,13,0.00
2013-1-12,72.5,44.8,34.7,24.2,8.7,2.7,29,23,16,17.72,17.72,8,1,9,0.00
2013-1-13,62.4,45.7,35.1,19.6,9.5,2.7,30,23,17,17.72,17.72,10,2,10,0.00
2013-1-14,51.6,46.8,41.0,10.7,7.1,4.1,21,19,19,17.72,17.72,15,5,16,0.00
2013-1-15,67.6,46.9,29.5,21.3,8.0,-3.7,23,20,17,17.72,17.72,14,2,15,0.00
2013-1-16,71.6,55.0,41.7,23.8,13.7,4.5,23,19,16,17.72,17.72,12,2,15,0.00
2013-1-17,76.6,59.6,45.7,25.8,16.1,6.4,20,18,15,17.72,17.72,10,2,13,0.00
2013-1-18,80.6,58.5,44.6,28.6,15.3,5.9,21,18,14,17.72,17.72,8,2,8,0.00
2013-1-19,81.1,58.3,44.1,28.3,15.1,5.6,20,18,14,17.72,17.72,8,2,9,0.00
2013-1-20,81.0,60.0,43.9,27.9,16.3,5.4,21,18,14,17.72,17.72,8,2,12,0.00
2013-1-21,90.1,61.1,45.1,31.9,16.6,6.2,20,18,12,17.72,17.72,9,1,10,0.00
2013-1-22,84.4,59.0,42.4,29.8,15.5,4.5,21,18,13,17.72,17.72,8,1,9,0.00
2013-1-23,79.0,65.6,52.7,27.4,19.7,10.4,20,17,15,17.72,17.72,10,2,12,0.00
2013-1-25,77.5,74.6,70.7,70.6,54.8,45.4,83,52,34,17.72,17.72,4,0,5,0.24
2013-1-26,80.2,71.9,68.7,62.6,33.9,-20.0,77,41,2,17.72,17.72,9,0,12,0.08
2013-1-27,72.7,64.2,55.0,61.8,26.4,-14.5,80,32,3,17.72,17.72,10,2,10,0.00
2013-1-28,64.2,55.4,45.7,53.9,20.9,-10.6,80,31,5,17.72,17.72,12,2,12,0.04
2013-1-29,65.8,54.7,44.4,28.1,12.6,-11.7,29,20,5,17.72,17.72,9,2,9,0.00
2013-1-30,79.3,61.4,54.1,31.2,17.2,-10.8,37,20,6,17.72,17.72,7,1,8,0.00
2013-1-31,85.6,63.6,53.8,29.8,22.6,9.4,27,21,13,17.72,17.72,9,2,10,0.00
2013-2-1,82.2,63.7,52.3,32.3,24.2,20.0,28,23,14,17.72,17.72,9,2,9,0.00
2013-2-2,80.2,65.2,56.8,29.9,24.4,19.3,27,22,15,17.72,17.72,6,0,6,0.00
2013-2-3,80.8,66.7,59.7,40.7,21.6,-14.5,32,20,3,17.72,17.72,9,2,10,0.00
2013-2-4,79.7,64.9,58.1,33.6,15.9,-10.6,33,17,5,17.72,17.72,9,2,9,0.00
2013-2-5,70.0,62.9,59.2,56.3,25.5,-14.5,79,30,3,17.72,17.72,6,0,6,0.00
2013-2-6,71.2,65.8,62.1,50.3,14.2,-12.5,62,18,4,17.72,17.72,8,2,8,0.00
2013-2-7,71.4,63.2,55.4,56.0,23.2,-14.5,81,32,3,17.72,17.72,11,2,11,0.00
2013-2-8,64.8,57.5,52.0,26.0,0.1,-12.3,27,11,5,17.72,17.72,16,2,17,0.39
2013-2-9,64.9,54.7,47.8,50.0,19.4,-10.4,81,33,6,17.72,17.72,8,2,9,0.00
2013-2-10,67.6,56.2,50.0,50.2,10.9,-10.8,78,20,5,17.72,17.72,6,1,8,0.00
2013-2-11,61.0,52.7,39.7,44.0,15.8,-10.6,66,25,5,17.72,17.72,15,3,17,0.00
2013-2-12,74.1,51.0,37.4,25.1,15.3,8.8,30,24,16,17.72,17.72,9,2,10,0.00
2013-2-13,82.9,56.9,43.7,28.9,19.0,13.5,29,23,14,17.72,17.72,9,2,10,0.00
2013-2-14,78.1,60.0,46.6,25.9,19.1,9.4,28,21,15,17.72,17.72,16,3,17,0.00
2013-2-15,79.7,61.5,46.6,28.0,18.5,8.9,27,19,15,17.72,17.72,15,2,15,0.00
2013-2-16,91.9,62.3,44.2,32.2,17.1,5.7,21,17,12,17.72,17.72,11,2,11,0.00
2013-2-17,79.9,57.9,41.2,28.0,17.0,-6.6,28,20,8,17.72,17.72,9,2,10,0.00
2013-2-18,71.1,63.2,58.1,35.8,22.9,-12.5,35,23,4,17.72,17.72,8,2,9,0.00
2013-2-19,65.8,60.1,55.8,34.7,25.6,22.1,34,27,21,17.72,17.72,11,2,13,0.28
2013-2-20,67.1,53.1,45.3,25.2,18.4,13.5,29,25,17,17.72,17.72,17,4,17,0.00
2013-2-21,67.3,54.8,46.6,28.0,20.5,9.7,35,26,17,17.72,17.72,8,2,10,0.00
2013-2-22,72.3,55.5,46.6,26.2,19.4,14.3,29,25,16,17.72,17.72,11,2,13,0.00
2013-2-23,78.8,57.8,47.1,27.4,21.0,16.5,29,24,15,17.72,17.72,13,2,13,0.00
2013-2-24,65.7,53.6,40.1,21.0,12.5,3.0,26,19,17,17.72,17.72,19,6,21,0.00
2013-2-25,75.0,52.8,35.4,25.8,12.0,0.4,24,19,16,17.72,17.72,12,3,15,0.00
2013-3-3,87.4,67.7,61.9,30.6,25.1,18.7,27,20,13,17.72,17.72,10,3,10,0.00
2013-3-4,79.7,67.4,62.2,37.4,30.2,23.5,33,25,15,17.72,17.72,8,2,11,0.00
2013-3-5,75.4,67.9,63.0,55.3,32.5,-14.2,70,29,3,17.72,17.72,10,2,11,0.00
2013-3-6,73.6,63.8,60.4,33.2,25.5,-11.9,29,24,4,17.72,17.72,12,3,13,0.00
2013-3-7,71.4,64.7,57.6,47.2,24.4,-14.4,49,24,3,17.72,17.72,10,1,10,0.00
2013-3-8,70.0,61.1,55.0,38.6,26.3,-11.5,36,27,4,17.72,17.72,11,3,16,0.35
2013-3-9,72.1,63.4,58.5,60.0,28.5,-14.4,80,28,3,17.72,17.72,13,2,13,0.00
2013-3-10,86.5,63.0,49.5,32.8,22.8,12.4,35,22,13,17.72,17.72,17,3,17,0.00
2013-3-11,86.2,62.6,46.4,29.6,21.5,14.2,28,21,13,17.72,17.72,11,2,11,0.00
2013-3-12,90.7,67.9,51.6,32.2,24.5,15.3,27,20,12,17.72,17.72,10,2,10,0.00
2013-3-13,82.9,62.2,54.1,28.9,21.6,14.3,26,21,14,17.72,17.72,7,1,8,0.00
2013-3-15,68.0,61.7,57.4,29.7,25.1,21.9,25,25,23,17.72,17.72,3,0,3,0.00
2013-3-16,77.2,66.9,56.7,39.5,27.8,20.5,31,23,15,17.72,17.72,11,2,11,0.00
2013-3-17,79.0,70.6,67.5,56.0,26.0,-14.5,65,24,3,17.72,17.72,9,2,10,0.00
2013-3-18,72.3,69.8,66.9,47.7,23.0,-13.9,44,21,3,17.72,17.72,9,2,11,0.00
2013-3-19,77.0,68.2,61.3,54.7,27.9,-14.4,68,26,3,17.72,17.72,9,2,9,0.00
2013-3-20,79.7,68.8,63.1,37.5,24.5,-12.5,34,21,4,17.72,17.72,10,2,11,0.00
2013-3-21,89.1,70.6,66.2,38.5,29.0,-14.5,33,22,3,17.72,17.72,10,2,10,0.00
2013-3-22,83.3,69.6,59.2,55.0,27.0,-14.5,64,24,3,17.72,17.72,11,2,13,0.00
2013-3-23,82.6,67.8,57.7,35.1,27.2,-12.5,35,23,4,17.72,17.72,10,2,13,0.00
2013-3-24,90.1,69.2,59.7,32.8,27.2,1.4,31,21,8,17.72,17.72,10,2,11,0.00
2013-3-25,85.3,69.2,58.3,32.8,27.0,22.6,26,21,13,17.72,17.72,11,2,11,0.00
2013-3-26,82.9,68.7,61.7,35.3,29.1,-14.5,31,23,3,17.72,17.72,11,2,12,0.00
2013-3-27,79.0,70.5,66.2,38.6,26.1,-20.0,33,21,3,17.72,17.72,10,2,10,0.00
2013-3-28,87.1,70.7,64.8,61.8,30.4,-20.0,77,26,2,17.72,17.72,11,2,12,0.00
2013-3-29,82.8,73.1,64.6,34.7,21.8,-12.7,23,16,4,17.72,17.72,11,3,17,0.00
2013-3-30,82.2,73.1,64.2,42.9,16.5,-20.0,32,15,2,17.72,17.72,10,3,12,0.00
2013-3-31,86.2,71.2,66.4,39.0,29.9,-8.4,30,22,4,17.72,17.72,17,4,20,0.00
2013-4-1,76.5,67.7,61.9,61.7,30.6,-20.0,77,29,2,17.72,17.72,14,3,14,0.00
2013-4-2,79.5,69.9,65.3,37.2,18.7,-11.6,32,17,4,17.72,17.72,11,2,11,0.00
2013-4-3,85.5,71.0,66.7,37.4,26.3,-14.4,32,20,3,17.72,17.72,9,1,10,0.00
2013-4-5,71.4,70.7,70.5,16.1,13.0,-14.0,12,11,3,17.72,17.72,0,0,0,0.00
2013-4-6,79.5,73.1,70.7,35.8,26.7,-20.0,24,19,2,17.72,17.72,13,2,15,0.00
2013-4-7,72.0,71.6,69.8,31.1,30.7,29.6,23,22,21,17.72,17.72,8,3,8,0.00
2013-4-8,66.7,60.3,56.8,23.2,21.3,18.4,25,22,17,17.72,17.72,15,5,15,0.00
2013-4-9,80.2,65.0,51.3,28.4,22.1,9.8,27,20,15,17.72,17.72,13,5,15,0.00
2013-4-10,90.9,66.6,48.9,32.2,20.5,8.5,24,17,12,17.72,17.72,15,5,15,0.00
2013-4-11,83.3,67.1,46.8,35.5,23.0,10.3,27,19,11,17.72,17.72,11,3,13,0.00
2013-4-12,85.5,73.1,68.7,40.0,33.5,15.8,32,24,12,17.72,17.72,10,2,11,0.00
2013-4-13,77.9,72.7,68.2,40.1,30.9,-20.0,34,23,2,17.72,17.72,11,3,11,0.00
2013-4-14,72.7,68.5,65.5,33.8,29.5,23.4,24,23,17,17.72,17.72,9,3,10,0.00
2013-4-15,79.2,68.2,61.3,34.7,29.4,25.2,25,23,19,17.72,17.72,11,3,14,0.00
2013-4-16,70.2,60.2,47.3,28.4,21.9,10.0,27,23,17,17.72,17.72,19,3,19,0.00
2013-4-17,79.2,58.5,44.6,27.6,17.2,6.4,28,20,15,17.72,17.72,17,3,17,0.00
2013-4-18,82.6,61.7,43.0,28.6,17.3,4.5,23,18,14,17.72,17.72,14,4,14,0.00
2013-4-19,92.8,67.8,46.0,32.8,20.3,6.4,21,17,12,17.72,17.72,13,3,15,0.00
2013-4-20,98.2,72.8,47.7,34.8,22.8,7.7,22,16,11,17.72,17.72,11,3,14,0.00
2013-4-24,68.9,68.4,67.3,29.5,29.2,28.5,24,23,23,17.72,17.72,6,3,6,0.00
2013-4-25,79.2,70.2,66.4,35.9,29.9,25.5,24,22,20,17.72,17.72,11,2,13,0.00
2013-4-26,75.7,69.7,67.3,37.2,26.5,-19.8,29,21,2,17.72,17.72,6,1,6,0.00
2013-5-4,87.8,76.3,70.2,34.4,4.5,-20.0,21,8,2,17.72,17.72,13,4,14,0.00
2013-5-5,77.4,69.1,66.4,34.4,25.1,-10.0,23,20,4,17.72,17.72,14,3,14,0.00
2013-5-6,80.2,72.5,66.4,69.8,10.2,-20.0,72,14,2,17.72,17.72,9,2,10,0.20
2013-5-7,83.8,70.3,63.5,38.8,10.2,-20.0,28,14,2,17.72,17.72,15,2,15,0.08
2013-5-8,77.7,69.1,64.0,34.7,16.7,-12.5,24,16,4,17.72,17.72,14,3,16,0.00
2013-5-9,82.6,73.1,65.5,38.0,10.6,-20.0,23,13,2,17.72,17.72,13,3,16,0.00
2013-5-10,90.5,78.8,72.5,42.0,16.0,-20.0,31,13,2,17.72,17.72,13,3,15,0.00
2013-5-11,108.5,83.7,72.1,42.6,20.9,-20.0,22,13,2,17.72,17.72,13,2,13,0.00
2013-5-12,105.8,85.3,67.1,42.4,32.4,23.2,24,16,10,17.72,17.72,17,3,17,0.00
2013-5-13,106.2,85.5,65.3,42.7,30.3,20.1,18,14,10,17.72,17.72,14,3,18,0.00
2013-5-14,101.8,77.5,61.7,35.1,26.8,14.4,23,16,10,17.72,17.72,14,3,14,0.00
2013-5-15,85.5,75.2,66.0,38.7,19.3,-20.0,23,15,2,17.72,17.72,11,3,13,0.00
2013-5-16,84.6,76.4,71.6,39.1,7.3,-20.0,22,11,2,17.72,17.72,13,3,14,0.00
2013-5-17,83.8,76.2,71.4,38.5,8.9,-20.0,23,12,2,17.72,17.72,16,3,18,0.00
2013-5-18,84.9,76.0,71.1,39.4,10.5,-20.0,22,12,2,17.72,17.72,13,3,13,0.00
2013-5-19,89.8,77.1,72.5,39.3,13.2,-20.0,22,13,2,17.72,17.72,11,3,13,0.00
2013-5-20,99.5,81.8,70.5,39.6,18.2,-20.0,23,12,2,17.72,17.72,11,3,13,0.00
2013-5-21,79.2,74.4,71.1,38.2,23.6,-19.3,26,18,2,17.72,17.72,7,1,7,0.00
2013-5-22,86.4,78.4,70.7,39.6,30.0,-20.0,22,19,2,17.72,17.72,13,4,13,0.00
2013-5-23,82.8,73.7,70.0,37.6,30.6,-13.9,23,21,3,17.72,17.72,14,3,14,0.00
2013-5-24,86.5,74.5,69.1,39.4,29.9,-14.2,23,20,3,17.72,17.72,13,3,13,0.00
2013-5-25,88.0,73.3,67.8,40.2,15.5,-14.5,23,14,3,17.72,17.72,13,3,13,0.00
2013-5-26,82.8,74.3,70.2,37.4,15.0,-14.3,23,14,3,17.72,17.72,10,3,10,0.00
2013-5-27,78.4,72.7,71.1,35.3,27.2,23.2,23,18,16,17.72,17.72,8,2,8,0.00
2013-5-28,82.2,77.9,73.4,38.4,32.1,-18.8,23,19,2,17.72,17.72,13,4,18,0.00
2013-5-29,88.9,79.4,72.3,41.3,20.1,-20.0,22,15,2,17.72,17.72,13,3,13,0.00
2013-5-30,90.7,81.0,72.1,41.0,29.5,-20.0,22,17,2,17.72,17.72,10,4,15,0.00
2013-6-5,76.1,75.1,73.9,36.7,34.6,32.9,24,23,22,17.72,17.72,0,0,0,0.00
2013-6-6,88.0,78.8,71.8,59.4,29.7,-18.6,58,21,2,17.72,17.72,11,3,13,0.00
2013-6-7,90.5,79.4,75.0,41.8,30.6,-18.4,25,19,2,17.72,17.72,10,3,10,0.00
2013-6-8,88.7,80.3,76.1,44.6,35.6,-17.0,31,21,2,17.72,17.72,10,3,10,0.00
2013-6-9,91.6,80.1,74.7,45.3,33.0,-18.0,31,20,2,17.72,17.72,11,3,11,0.00
2013-6-10,87.6,78.4,72.5,57.5,29.3,-19.0,52,19,2,17.72,17.72,12,3,12,0.00
2013-6-11,99.0,81.8,71.2,41.5,30.1,-20.0,29,16,2,17.72,17.72,10,2,11,0.00
2013-6-12,90.3,80.5,75.7,46.6,26.5,-16.9,31,17,2,17.72,17.72,12,3,12,0.00
2013-6-13,91.4,81.2,73.9,42.2,20.1,-17.8,21,14,2,17.72,17.72,11,3,11,0.00
2013-6-14,90.7,79.1,72.5,49.6,32.0,-19.1,43,20,2,17.72,17.72,11,3,11,0.00
2013-6-15,88.2,78.0,73.0,43.3,27.3,-19.3,31,18,2,17.72,17.72,10,3,12,0.00
2013-6-16,90.9,80.1,73.8,58.9,34.4,-17.4,58,21,2,17.72,17.72,12,3,12,0.08
2013-6-17,95.7,81.1,66.0,40.2,34.4,19.1,22,19,13,17.72,17.72,14,3,14,0.00
2013-6-18,84.7,73.9,64.0,36.6,16.5,-23.9,22,13,2,17.72,17.72,13,3,13,0.00
2013-6-19,83.4,73.2,64.5,36.9,12.6,-23.6,22,14,2,17.72,17.72,13,3,13,0.00
2013-6-20,84.7,72.3,62.7,36.9,19.6,-18.1,23,16,3,17.72,17.72,13,3,13,0.00
2013-6-21,86.5,72.0,61.1,35.1,24.6,-18.1,23,18,4,17.72,17.72,12,3,15,0.00
2013-6-22,84.9,73.2,63.3,37.9,26.0,-16.2,23,18,3,17.72,17.72,12,3,14,0.00
2013-6-23,82.9,73.7,65.1,36.9,9.8,-22.6,22,12,2,17.72,17.72,12,3,14,0.00
2013-6-24,80.0,73.8,70.7,35.4,4.7,-21.8,22,11,2,17.72,17.72,12,3,13,0.00
2013-6-25,82.7,75.2,70.8,36.7,-3.4,-21.7,20,7,2,17.72,17.72,10,2,11,0.00
2013-6-26,94.1,83.8,73.9,42.7,27.7,-19.7,20,15,2,17.72,17.72,11,3,13,0.00
2013-6-27,98.6,84.6,73.5,42.9,19.8,-20.0,20,12,2,17.72,17.72,13,3,14,0.00
2013-6-28,103.8,86.6,73.4,43.7,27.7,-19.8,21,13,2,17.72,17.72,12,3,14,0.00
2013-6-29,104.9,87.9,72.1,44.5,35.3,15.9,21,16,10,17.72,17.72,10,2,13,0.00
2013-6-30,105.4,88.0,73.4,43.5,33.6,-14.0,22,16,2,17.72,17.72,13,3,13,0.00
2013-7-1,100.2,89.6,80.6,46.1,20.5,-14.6,20,11,2,17.72,17.72,10,3,13,0.00
2013-7-2,97.7,89.5,81.1,45.4,26.5,-15.1,19,13,2,17.72,17.72,11,4,11,0.00
2013-7-3,96.4,86.9,79.0,44.5,24.7,-16.5,19,13,2,17.72,17.72,9,3,11,0.00
2013-7-4,98.1,85.7,77.2,42.1,8.6,-17.6,19,8,2,17.72,17.72,10,3,11,0.00
2013-7-7,96.1,89.8,82.0,44.3,38.8,31.8,20,17,14,17.72,17.72,12,5,12,0.00
2013-7-25,88.5,88.1,81.1,41.0,38.3,-15.1,19,18,2,17.72,17.72,8,4,9,0.00
2013-7-26,92.7,86.5,81.5,43.0,16.4,-14.8,19,11,2,17.72,17.72,10,4,10,0.00
2013-7-27,93.4,84.7,79.5,43.6,12.9,-16.1,19,10,2,17.72,17.72,13,3,13,0.00
2013-7-28,90.7,83.0,76.6,41.6,10.6,-18.0,20,10,2,17.72,17.72,14,3,14,0.00
2013-7-29,89.8,81.7,75.6,41.6,27.7,-18.0,21,16,2,17.72,17.72,10,3,11,0.00
2013-7-30,89.8,81.1,74.8,41.8,28.1,-19.0,21,16,2,17.72,17.72,11,3,11,0.00
2013-7-31,86.7,78.9,74.3,40.2,19.6,-19.2,21,13,2,17.72,17.72,11,3,11,0.00
2013-8-1,86.5,78.6,73.9,40.2,24.9,-18.1,21,15,2,17.72,17.72,10,3,12,0.00
2013-8-2,87.6,80.7,73.6,40.3,29.2,-16.2,22,17,2,17.72,17.72,10,3,14,0.00
2013-8-3,89.1,80.0,75.0,41.5,27.4,-17.5,22,16,2,17.72,17.72,10,3,12,0.00
2013-8-4,90.5,80.8,73.2,41.8,32.2,-15.6,23,18,2,17.72,17.72,11,3,11,0.00
2013-8-5,90.5,79.4,69.3,40.3,27.0,2.3,22,15,6,17.72,17.72,10,3,11,0.00
2013-8-6,89.2,78.5,70.3,40.2,30.9,-17.1,23,18,2,17.72,17.72,10,2,12,0.00
2013-8-7,88.9,77.2,67.8,40.8,28.7,-17.5,22,17,2,17.72,17.72,12,3,13,0.00
2013-8-8,90.5,76.9,64.2,38.7,28.1,12.3,23,17,11,17.72,17.72,13,3,13,0.00
2013-8-9,85.1,76.5,66.0,38.4,28.7,8.6,21,18,8,17.72,17.72,12,3,13,0.00
2013-8-10,86.0,76.8,70.5,39.0,32.7,-16.2,24,20,2,17.72,17.72,11,2,11,0.00
2013-8-11,89.8,77.2,70.3,38.2,33.0,20.6,23,20,12,17.72,17.72,11,2,15,0.00
2013-8-12,90.7,79.1,70.3,41.6,34.1,11.0,23,20,8,17.72,17.72,10,3,13,0.00
2013-8-13,92.5,83.7,74.5,42.9,37.6,25.7,23,20,15,17.72,17.72,11,2,12,0.00
2013-8-14,91.4,85.7,74.3,42.0,37.8,-16.0,23,19,2,17.72,17.72,10,3,13,0.00
2013-8-15,107.6,91.3,76.1,46.1,38.4,31.3,21,16,10,17.72,17.72,11,4,11,0.00
2013-8-16,103.1,84.5,70.3,42.0,34.3,28.4,23,17,10,17.72,17.72,13,2,13,0.00
2013-8-17,105.8,84.3,71.1,42.7,34.2,29.2,23,17,10,17.72,17.72,12,2,12,0.00
2013-8-18,102.4,82.8,71.4,40.6,35.4,27.7,22,19,12,17.72,17.72,11,3,13,0.00
2013-8-19,100.4,84.8,78.8,46.1,35.2,23.1,20,17,12,17.72,17.72,10,3,11,0.00
2013-8-20,101.1,84.5,77.0,45.5,34.4,16.9,21,17,9,17.72,17.72,10,3,11,0.00
2013-8-21,107.8,82.3,70.5,42.7,33.5,24.7,22,18,10,17.72,17.72,12,2,12,0.00
2013-8-24,75.9,75.0,73.8,33.2,32.4,31.4,21,21,21,17.72,17.72,0,0,3,0.00
2013-8-25,106.0,84.5,71.4,44.8,34.5,26.4,22,17,10,17.72,17.72,11,3,13,0.00
2013-8-26,99.0,85.3,74.3,46.6,34.7,-9.0,22,18,2,17.72,17.72,9,1,10,0.04
2013-8-27,106.3,89.2,77.2,48.4,29.0,-13.8,21,13,2,17.72,17.72,13,2,14,0.00
2013-8-28,109.0,88.3,75.9,46.1,38.0,27.0,22,18,11,17.72,17.72,15,2,15,0.00
2013-8-29,86.2,82.9,81.1,37.4,36.3,33.9,20,19,16,17.72,17.72,4,0,4,0.00
2013-8-30,104.7,91.3,80.6,48.4,30.4,-10.9,20,14,2,17.72,17.72,13,2,13,0.00
2013-8-31,105.3,92.1,87.1,48.8,16.5,-11.3,18,9,2,17.72,17.72,14,2,17,0.00
2013-9-1,103.3,91.1,84.7,48.4,12.3,-12.8,18,8,2,17.72,17.72,12,3,13,0.00
2013-9-2,102.2,90.0,83.5,47.6,20.4,-13.6,19,11,2,17.72,17.72,11,3,12,0.00
2013-9-3,108.3,90.4,79.9,46.1,19.7,-15.9,20,10,2,17.72,17.72,13,2,15,0.00
2013-9-4,109.2,90.3,77.7,45.7,37.6,23.1,20,16,11,17.72,17.72,12,2,12,0.00
2013-9-5,111.4,91.7,78.8,43.0,38.2,30.9,20,16,10,17.72,17.72,11,2,17,0.00
2013-9-6,108.3,87.9,77.2,42.5,36.0,29.6,21,16,10,17.72,17.72,10,2,15,0.00
2013-9-7,109.4,87.9,76.5,43.3,37.8,33.6,21,18,10,17.72,17.72,14,2,14,0.00
2013-9-8,108.7,84.9,70.9,44.0,34.7,22.7,22,17,10,17.72,17.72,13,2,14,0.00
2013-9-9,102.2,82.6,71.2,40.4,34.4,28.4,22,18,10,17.72,17.72,15,3,15,0.00
2013-9-10,95.0,80.0,69.4,43.1,21.5,-19.6,23,14,2,17.72,17.72,10,3,11,0.00
2013-9-11,95.7,80.2,74.5,44.0,6.6,-19.3,20,9,2,17.72,17.72,10,2,11,0.00
2013-9-12,106.5,82.1,69.8,42.7,14.6,-20.0,23,11,2,17.72,17.72,9,2,12,0.00
2013-9-13,107.2,80.1,62.2,42.2,30.3,25.3,25,17,10,17.72,17.72,10,2,11,0.00
2013-9-14,100.8,82.0,67.1,40.6,33.0,26.1,23,18,10,17.72,17.72,10,2,13,0.00
2013-9-15,103.6,81.3,70.3,41.1,33.4,26.9,22,18,10,17.72,17.72,12,2,13,0.00
2013-9-16,128.3,83.0,67.8,45.3,32.6,27.2,23,17,6,17.72,17.72,13,2,15,0.00
2013-9-17,71.2,67.8,64.9,30.5,28.5,25.6,24,23,20,17.72,17.72,4,0,4,0.00
2013-9-18,91.9,80.1,73.6,41.7,19.5,-19.9,21,13,2,17.72,17.72,10,3,12,0.00
2013-9-19,95.7,80.2,72.7,44.8,5.3,-20.0,21,8,2,17.72,17.72,9,2,11,0.00
2013-9-20,90.0,81.3,77.5,42.2,12.5,-17.4,22,11,2,17.72,17.72,10,2,11,0.00
2013-9-21,90.9,81.3,74.1,41.8,35.3,10.6,22,20,8,17.72,17.72,14,3,14,0.00
2013-9-22,91.0,78.5,67.6,40.3,30.8,19.1,22,18,12,17.72,17.72,10,3,11,0.00
2013-9-23,104.4,78.8,61.5,41.7,29.5,21.2,25,17,9,17.72,17.72,11,2,13,0.00
2013-9-24,104.9,77.5,61.5,42.1,28.9,20.4,25,18,10,17.72,17.72,17,3,17,0.00
2013-9-25,93.4,73.4,61.2,36.6,25.7,-20.0,24,18,2,17.72,17.72,11,3,11,0.00
2013-9-26,86.0,70.3,59.7,36.0,28.0,14.2,25,21,12,17.72,17.72,13,2,15,0.00
2013-9-27,96.4,70.7,57.7,33.4,24.8,16.5,26,19,11,17.72,17.72,13,3,16,0.00
2013-9-28,102.2,71.6,53.4,40.0,22.7,11.3,21,16,10,17.72,17.72,11,2,13,0.00
2013-9-29,110.3,77.9,53.8,43.1,25.9,11.3,20,15,9,17.72,17.72,11,3,11,0.00
2013-9-30,106.0,74.2,52.7,42.7,25.2,13.5,26,17,9,17.72,17.72,10,2,12,0.00
2013-10-1,102.0,76.6,59.7,36.5,29.4,2.7,25,19,6,17.72,17.72,12,2,12,0.00
2013-10-2,73.6,73.0,72.7,36.2,35.0,33.8,26,25,24,17.72,17.72,0,0,0,0.00
2013-10-4,92.5,73.9,59.0,32.5,24.3,16.8,19,16,12,17.72,17.72,17,5,19,0.00
2013-10-5,107.8,73.0,52.3,42.7,23.3,10.1,20,16,9,17.72,17.72,13,3,13,0.00
2013-10-6,113.5,75.7,53.1,43.9,24.5,10.7,20,15,9,17.72,17.72,10,2,12,0.00
2013-10-7,108.5,73.4,55.6,42.7,23.7,15.2,20,16,9,17.72,17.72,12,3,15,0.00
2013-10-8,90.3,62.2,52.0,32.2,22.6,13.5,27,22,12,17.72,17.72,9,2,11,0.00
2013-11-6,100.9,69.3,53.4,34.8,21.3,11.0,20,17,10,17.72,17.72,10,2,10,0.00
2013-11-7,101.7,63.8,48.7,35.0,18.4,8.3,25,18,10,17.72,17.72,10,1,10,0.00
2013-11-8,97.9,62.0,47.5,34.5,18.7,9.5,27,19,11,17.72,17.72,8,2,9,0.00
2013-11-9,96.4,61.0,48.9,33.4,20.4,13.5,27,22,11,17.72,17.72,8,2,10,0.00
2013-11-10,100.8,61.2,49.5,34.9,20.5,13.5,26,21,10,17.72,17.72,6,1,8,0.00
2013-11-11,99.7,62.2,48.0,34.9,20.8,15.6,27,21,10,17.72,17.72,10,1,10,0.00
2013-11-12,81.1,65.0,54.0,35.7,23.2,15.3,26,21,14,17.72,17.72,5,1,7,0.00
2013-11-13,110.1,69.8,55.2,43.1,23.6,15.3,25,18,10,17.72,17.72,12,2,12,0.00
2013-11-14,103.3,67.8,54.1,40.6,21.3,14.0,25,17,9,17.72,17.72,10,2,12,0.00
2013-11-15,78.6,64.6,52.0,35.5,24.5,-12.5,27,23,4,17.72,17.72,8,1,9,0.00
2013-11-16,75.4,68.0,62.6,34.4,27.9,-20.0,26,23,2,17.72,17.72,8,1,8,0.00
2013-11-17,81.5,66.7,63.5,36.6,29.5,27.1,28,25,17,17.72,17.72,8,1,10,0.00
2013-11-18,67.1,66.6,65.1,34.5,32.8,31.4,31,28,27,17.72,17.72,0,0,0,0.00
2013-11-23,67.1,63.8,61.0,34.5,28.7,24.9,30,26,25,17.72,17.72,4,1,5,0.00
2013-11-24,74.1,65.4,59.5,40.8,30.2,19.9,33,27,16,17.72,17.72,8,1,9,0.00
2013-11-25,69.1,66.4,60.4,36.1,32.4,24.5,31,28,24,17.72,17.72,6,1,8,0.00
2013-11-26,84.6,64.7,58.3,29.8,23.6,18.6,25,21,13,17.72,17.72,8,2,11,0.00
2013-11-27,80.2,62.1,55.0,28.4,22.8,19.5,26,22,15,17.72,17.72,8,2,11,0.00
2013-11-28,75.6,62.9,54.9,30.3,24.3,20.2,26,23,15,17.72,17.72,9,1,10,0.00
2013-11-29,84.6,73.8,66.4,48.8,37.9,29.3,31,27,23,17.72,17.72,7,1,8,0.04
2013-11-30,75.4,67.4,57.9,40.0,29.1,20.6,30,24,15,17.72,17.72,5,1,6,0.00
2013-12-1,79.0,61.5,50.4,27.4,21.3,14.9,26,21,15,17.72,17.72,6,1,9,0.00
2013-12-2,77.9,59.9,49.8,26.6,20.8,14.5,26,22,15,17.72,17.72,7,1,8,0.00
2013-12-3,69.8,61.5,52.2,31.4,23.6,18.3,26,23,17,17.72,17.72,14,2,14,0.00
2013-12-4,65.8,58.3,51.1,30.8,22.2,12.1,27,25,17,17.72,17.72,12,2,12,0.00
2013-12-5,60.3,57.4,54.5,25.5,22.0,20.2,27,25,24,17.72,17.72,11,2,11,0.00
2013-12-6,61.3,57.8,53.6,27.4,22.8,19.6,28,26,24,17.72,17.72,8,2,9,0.00
2013-12-7,82.6,62.6,58.3,48.0,27.8,22.6,31,27,24,17.72,17.72,8,2,9,0.08
2013-12-8,61.3,53.9,41.5,25.2,19.6,10.9,28,26,25,29.26,29.15,8,2,8,0.00
2013-12-9,58.1,42.2,33.4,13.5,5.7,-1.0,28,22,17,29.38,29.18,16,3,17,0.00
2013-12-10,69.8,44.7,32.7,23.1,6.6,-1.0,26,21,17,29.32,29.18,12,2,12,0.00
2013-12-11,68.4,49.6,37.4,21.9,10.7,3.9,26,21,17,29.29,29.12,8,1,9,0.00
2013-12-12,70.0,52.7,41.5,23.2,14.3,4.7,27,22,17,29.26,29.18,8,2,8,0.00
2013-12-13,66.9,55.6,48.4,25.2,20.0,13.3,29,25,17,29.26,29.18,8,2,8,0.00
2013-12-14,72.7,56.9,45.1,24.2,14.1,6.4,24,18,16,29.38,29.23,11,3,13,0.00
2013-12-15,80.6,58.7,44.2,28.6,15.4,5.7,21,18,14,29.35,29.23,10,2,11,0.00
2013-12-16,88.3,63.0,49.8,31.3,18.8,11.5,24,18,13,29.29,29.18,6,1,8,0.00
2013-12-17,87.4,64.1,52.2,30.6,19.6,13.4,21,18,13,29.23,29.12,9,1,9,0.00
2013-12-18,76.1,63.6,54.5,43.3,21.7,14.3,31,20,16,29.12,28.97,9,1,9,0.00
2013-12-19,97.5,75.3,63.1,84.1,46.5,25.8,67,39,24,28.97,28.79,11,1,12,0.31
2013-12-20,107.4,77.2,53.1,88.1,48.6,16.7,65,39,19,29.03,28.79,8,1,9,0.00
2013-12-21,74.7,65.3,59.9,44.0,33.3,23.5,34,31,23,29.18,28.94,8,1,8,0.00
2013-12-22,84.4,65.7,52.2,67.3,32.2,18.3,61,29,17,29.35,29.15,6,1,6,0.00
2013-12-23,72.9,58.0,50.2,24.4,18.7,12.8,26,22,16,29.38,29.26,10,2,11,0.00
2013-12-24,78.6,59.5,49.5,27.1,17.8,11.3,24,20,15,29.29,29.21,10,2,11,0.00
2013-12-25,75.0,58.9,45.3,25.8,15.6,6.4,21,18,16,29.32,29.23,11,2,13,0.00
2013-12-26,75.6,55.9,43.9,25.8,13.2,5.4,21,18,15,30.06,29.23,8,2,9,0.00
2013-12-27,79.5,55.8,43.0,27.9,13.1,4.7,21,18,15,30.03,29.94,8,1,8,0.00
2013-12-28,74.1,54.8,43.5,25.1,12.7,5.1,23,19,16,29.97,29.80,8,2,9,0.00
2013-12-29,69.6,56.7,39.2,22.9,14.6,2.6,23,19,17,30.06,29.85,17,4,17,0.00
2013-12-30,68.4,47.4,36.9,21.9,8.0,1.0,23,20,17,30.15,30.03,7,1,8,0.00
2013-12-31,68.2,47.6,36.9,21.7,8.7,-0.6,26,20,17,30.09,29.97,7,1,8,0.00
2014-1-1,74.8,52.2,39.7,25.7,11.5,3.0,26,20,16,30.03,29.91,8,2,9,0.00
2014-1-2,76.6,53.5,43.5,25.8,12.4,5.1,23,19,15,30.03,29.94,7,1,8,0.00